createdAt,value
2019-05-03T00:00:52.110Z,3.39
2019-05-03T00:06:01.724Z,3.38
2019-05-03T00:11:07.164Z,2.98
2019-05-03T00:16:14.874Z,3.17
2019-05-03T00:21:22.579Z,2.76
2019-05-03T00:26:31.835Z,3.06
2019-05-03T00:31:37.849Z,3.28
2019-05-03T00:36:45.735Z,2.80
2019-05-03T00:41:53.440Z,3.02
2019-05-03T00:47:02.322Z,3.23
2019-05-03T00:52:08.367Z,3.32
2019-05-03T00:57:16.151Z,2.93
2019-05-03T01:02:26.213Z,3.42
2019-05-03T01:07:31.861Z,3.17
2019-05-03T01:12:38.416Z,3.39
2019-05-03T01:17:46.102Z,3.15
2019-05-03T01:22:53.875Z,2.84
2019-05-03T01:28:01.630Z,3.49
2019-05-03T01:33:09.412Z,2.97
2019-05-03T01:38:19.369Z,3.16
2019-05-03T01:43:24.472Z,3.48
2019-05-03T01:48:32.277Z,3.14
2019-05-03T01:53:41.710Z,3.22
2019-05-03T01:58:47.479Z,2.89
2019-05-03T02:03:55.423Z,2.78
2019-05-03T02:09:03.324Z,2.86
2019-05-03T02:14:12.414Z,2.96
2019-05-03T02:19:18.499Z,2.62
2019-05-03T02:24:26.293Z,2.59
2019-05-03T02:29:34.166Z,2.59
2019-05-03T02:34:43.935Z,2.46
2019-05-03T02:39:49.085Z,2.67
2019-05-03T02:44:56.939Z,2.29
2019-05-03T02:50:05.871Z,2.70
2019-05-03T02:55:15.674Z,2.37
2019-05-03T03:00:19.454Z,2.58
2019-05-03T03:05:27.278Z,2.77
2019-05-03T03:10:37.810Z,2.22
2019-05-03T03:15:36.271Z,2.76
2019-05-03T03:20:44.909Z,2.86
2019-05-03T03:25:50.040Z,2.56
2019-05-03T03:30:57.874Z,2.45
2019-05-03T03:36:32.049Z,2.93
2019-05-03T03:41:16.169Z,3.16
2019-05-03T03:46:20.362Z,2.88
2019-05-03T03:51:28.128Z,3.06
2019-05-03T03:56:53.596Z,2.90
2019-05-03T04:01:45.675Z,2.88
2019-05-03T04:06:50.983Z,3.01
2019-05-03T04:11:58.795Z,3.16
2019-05-03T04:17:06.406Z,3.19
2019-05-03T04:22:16.488Z,3.19
2019-05-03T04:27:24.410Z,3.29
2019-05-03T04:32:29.281Z,3.44
2019-05-03T04:37:36.741Z,3.03
2019-05-03T04:42:46.475Z,3.24
2019-05-03T04:47:51.834Z,3.30
2019-05-03T04:52:59.657Z,3.18
2019-05-03T04:58:08.283Z,3.34
2019-05-03T05:03:16.034Z,3.29
2019-05-03T05:08:25.311Z,3.60
2019-05-03T05:13:31.041Z,3.11
2019-05-03T05:18:38.767Z,3.57
2019-05-03T05:23:46.825Z,3.01
2019-05-03T05:28:54.878Z,3.13
2019-05-03T05:34:01.886Z,3.21
2019-05-03T05:39:09.554Z,2.93
2019-05-03T05:44:17.277Z,3.16
2019-05-03T05:49:25.967Z,3.52
2019-05-03T05:54:32.353Z,3.56
2019-05-03T05:59:40.025Z,3.54
2019-05-03T06:04:47.924Z,3.55
2019-05-03T06:09:55.574Z,3.09
2019-05-03T06:15:04.741Z,2.88
2019-05-03T06:20:10.445Z,3.14
2019-05-03T06:25:18.376Z,2.64
2019-05-03T06:30:26.040Z,2.74
2019-05-03T06:35:34.565Z,2.71
2019-05-03T06:40:41.138Z,3.00
2019-05-03T06:45:50.287Z,2.71
2019-05-03T06:51:00.182Z,2.99
2019-05-03T06:56:04.512Z,2.70
2019-05-03T07:01:11.370Z,2.52
2019-05-03T07:06:18.305Z,2.63
2019-05-03T07:11:26.153Z,3.34
2019-05-03T07:16:35.338Z,2.91
2019-05-03T07:21:41.036Z,2.86
2019-05-03T07:26:48.996Z,2.71
2019-05-03T07:31:56.800Z,3.05
2019-05-03T07:37:05.899Z,2.68
2019-05-03T07:42:11.658Z,2.81
2019-05-03T07:47:19.471Z,2.35
2019-05-03T07:52:27.163Z,2.82
2019-05-03T07:57:35.780Z,2.80
2019-05-03T08:02:44.630Z,2.68
2019-05-03T08:07:50.074Z,2.74
2019-05-03T08:12:57.698Z,2.54
2019-05-03T08:18:05.541Z,2.06
2019-05-03T08:23:24.447Z,2.33
2019-05-03T08:28:20.509Z,2.42
2019-05-03T08:33:28.152Z,2.23
2019-05-03T08:38:35.945Z,2.40
2019-05-03T08:43:44.648Z,2.29
2019-05-03T08:48:51.066Z,2.39
2019-05-03T08:53:58.769Z,2.41
2019-05-03T08:59:06.640Z,2.77
2019-05-03T09:04:15.455Z,2.33
2019-05-03T09:09:21.646Z,2.46
2019-05-03T09:14:41.447Z,1.78
2019-05-03T09:19:36.840Z,2.03
2019-05-03T09:24:45.570Z,2.05
2019-05-03T09:29:51.825Z,2.28
2019-05-03T09:34:59.513Z,3.07
2019-05-03T09:40:07.444Z,1.99
2019-05-03T09:45:15.419Z,2.40
2019-05-03T09:50:24.593Z,2.03
2019-05-03T09:55:30.351Z,2.68
2019-05-03T10:00:38.134Z,2.44
2019-05-03T10:05:45.960Z,2.43
2019-05-03T10:10:53.734Z,2.51
2019-05-03T10:16:01.812Z,1.95
2019-05-03T10:21:09.665Z,2.06
2019-05-03T10:26:17.342Z,2.26
2019-05-03T10:31:25.266Z,2.35
2019-05-03T10:36:32.775Z,2.40
2019-05-03T10:41:40.390Z,2.63
2019-05-03T10:46:49.245Z,2.47
2019-05-03T10:51:56.866Z,2.32
2019-05-03T10:57:05.233Z,2.75
2019-05-03T11:02:11.687Z,2.32
2019-05-03T11:07:19.460Z,1.98
2019-05-03T11:12:27.295Z,1.95
2019-05-03T11:17:35.022Z,1.98
2019-05-03T11:22:42.792Z,2.05
2019-05-03T11:27:50.494Z,2.37
2019-05-03T11:32:58.149Z,1.97
2019-05-03T11:38:05.815Z,1.94
2019-05-03T11:43:15.238Z,2.35
2019-05-03T11:48:20.697Z,2.26
2019-05-03T11:53:28.428Z,2.18
2019-05-03T11:58:36.287Z,2.42
2019-05-03T12:03:45.084Z,2.05
2019-05-03T12:08:51.328Z,2.14
2019-05-03T12:14:04.411Z,2.01
2019-05-03T12:19:16.106Z,2.01
2019-05-03T12:24:15.907Z,1.98
2019-05-03T12:29:21.989Z,2.28
2019-05-03T12:34:29.770Z,2.33
2019-05-03T12:39:37.559Z,2.47
2019-05-03T12:44:46.039Z,2.27
2019-05-03T12:49:53.238Z,2.44
2019-05-03T12:55:00.981Z,2.09
2019-05-03T13:00:08.610Z,2.53
2019-05-03T13:05:16.334Z,2.37
2019-05-03T13:10:26.391Z,2.23
2019-05-03T13:15:31.426Z,2.33
2019-05-03T13:20:39.125Z,2.09
2019-05-03T13:25:46.865Z,2.11
2019-05-03T13:30:54.724Z,2.13
2019-05-03T13:36:02.437Z,2.30
2019-05-03T13:41:10.132Z,2.61
2019-05-03T13:46:17.806Z,2.25
2019-05-03T13:51:25.650Z,2.35
2019-05-03T13:56:35.170Z,2.11
2019-05-03T14:01:40.588Z,2.19
2019-05-03T14:06:48.340Z,1.77
2019-05-03T14:11:56.112Z,1.84
2019-05-03T14:17:05.287Z,2.27
2019-05-03T14:22:11.762Z,2.04
2019-05-03T14:27:19.577Z,1.73
2019-05-03T14:32:28.968Z,2.03
2019-05-03T14:37:34.983Z,1.82
2019-05-03T14:42:44.717Z,2.04
2019-05-03T14:47:50.102Z,2.20
2019-05-03T14:52:57.957Z,1.90
2019-05-03T14:58:05.814Z,2.00
2019-05-03T15:03:15.111Z,2.09
2019-05-03T15:08:20.826Z,1.89
2019-05-03T15:13:28.608Z,2.03
2019-05-03T15:18:36.473Z,2.32
2019-05-03T15:23:45.333Z,2.48
2019-05-03T15:28:51.657Z,2.84
2019-05-03T15:33:59.325Z,2.36
2019-05-03T15:39:07.201Z,2.58
2019-05-03T15:44:14.905Z,2.18
2019-05-03T15:49:25.543Z,2.18
2019-05-03T15:54:29.831Z,2.26
2019-05-03T15:59:37.612Z,1.73
2019-05-03T16:04:45.369Z,1.74
2019-05-03T16:09:55.085Z,1.82
2019-05-03T16:15:00.738Z,2.09
2019-05-03T16:20:08.557Z,2.46
2019-05-03T16:25:16.234Z,2.26
2019-05-03T16:30:25.609Z,2.31
2019-05-03T16:35:31.209Z,2.39
2019-05-03T16:40:38.917Z,2.26
2019-05-03T16:45:46.705Z,2.16
2019-05-03T16:50:52.838Z,2.14
2019-05-03T16:56:03.241Z,2.13
2019-05-03T17:01:07.817Z,2.45
2019-05-03T17:06:15.569Z,2.49
2019-05-03T17:11:21.578Z,2.49
2019-05-03T17:16:29.250Z,2.71
2019-05-03T17:21:37.060Z,2.50
2019-05-03T17:26:44.884Z,2.65
2019-05-03T17:31:52.621Z,2.73
2019-05-03T17:37:01.448Z,2.69
2019-05-03T17:42:09.106Z,2.92
2019-05-03T17:47:16.862Z,2.94
2019-05-03T17:52:24.589Z,3.36
2019-05-03T17:57:35.113Z,3.08
2019-05-03T18:02:32.769Z,4.32
2019-05-03T18:07:40.587Z,3.70
2019-05-03T18:12:48.246Z,3.54
2019-05-03T18:17:56.434Z,3.23
2019-05-03T18:23:05.090Z,2.98
2019-05-03T18:28:11.490Z,2.81
2019-05-03T18:33:19.546Z,2.78
2019-05-03T18:38:27.182Z,2.85
2019-05-03T18:43:34.817Z,2.92
2019-05-03T18:48:44.450Z,2.76
2019-05-03T18:53:49.945Z,3.55
2019-05-03T18:58:57.768Z,3.22
2019-05-03T19:04:05.401Z,3.06
2019-05-03T19:09:14.567Z,3.16
2019-05-03T19:14:20.496Z,3.02
2019-05-03T19:19:28.439Z,3.55
2019-05-03T19:24:36.106Z,3.12
2019-05-03T19:29:44.868Z,2.87
2019-05-03T19:34:51.755Z,3.19
2019-05-03T19:39:59.357Z,2.87
2019-05-03T19:45:07.132Z,2.73
2019-05-03T19:50:15.728Z,3.15
2019-05-03T19:55:22.074Z,2.80
2019-05-03T20:00:29.774Z,2.79
2019-05-03T20:05:37.474Z,2.56
2019-05-03T20:10:45.290Z,2.74
2019-05-03T20:15:55.192Z,2.40
2019-05-03T20:21:00.325Z,2.42
2019-05-03T20:26:08.086Z,2.47
2019-05-03T20:31:15.925Z,2.04
2019-05-03T20:36:23.769Z,2.27
2019-05-03T20:41:31.597Z,2.31
2019-05-03T20:46:39.423Z,2.23
2019-05-03T20:51:51.021Z,2.29
2019-05-03T20:56:54.651Z,2.44
2019-05-03T21:02:02.177Z,2.44
2019-05-03T21:07:11.020Z,2.84
2019-05-03T21:12:18.618Z,2.65
2019-05-03T21:17:26.238Z,2.71
2019-05-03T21:22:35.395Z,2.50
2019-05-03T21:27:41.373Z,2.62
2019-05-03T21:32:49.142Z,2.44
2019-05-03T21:37:56.796Z,2.65
2019-05-03T21:43:04.914Z,2.68
2019-05-03T21:48:14.452Z,2.75
2019-05-03T21:53:20.145Z,2.56
2019-05-03T21:58:27.833Z,2.73
2019-05-03T22:03:35.717Z,2.82
2019-05-03T22:08:45.367Z,2.75
2019-05-03T22:13:50.930Z,2.91
2019-05-03T22:18:58.749Z,3.02
2019-05-03T22:24:06.556Z,3.19
2019-05-03T22:29:14.440Z,3.32
2019-05-03T22:34:22.462Z,3.03
2019-05-03T22:39:30.327Z,3.37
2019-05-03T22:44:38.115Z,3.47
2019-05-03T22:49:45.924Z,3.63
2019-05-03T22:54:55.441Z,3.52
2019-05-03T23:00:01.091Z,3.49
2019-05-03T23:05:08.902Z,3.81
2019-05-03T23:10:17.496Z,3.37
2019-05-03T23:15:24.400Z,3.96
2019-05-03T23:20:31.298Z,3.58
2019-05-03T23:25:39.261Z,4.15
2019-05-03T23:30:46.913Z,3.31
2019-05-03T23:35:55.232Z,3.77
2019-05-03T23:41:04.693Z,3.97
2019-05-03T23:46:09.932Z,3.65
2019-05-03T23:51:17.598Z,3.68
2019-05-03T23:56:25.478Z,4.18
